Bismarck Municipal Airport
KBIS : now visible

Airfield :











YOU CAN JOIN US ON...

 
LOGIN :

Register | Disclaimer

   EN    FR    IT 

 









Legend :    VFR   Marginal VFR   IFR   Intensive IFR   Very Intensive IFR
Visi :
Ceiling :
>= 8 km
>= 3000ft
5 to 8 km
1000 to 3000 ft
1500m to 5 km
500 to 1000 ft
800 to 1500m
200 to 500 ft
< 800m
< 200 ft
Symbols :   Thunderstorms  Fog  Heavy snow  Heavy precipitations  Wind > 20 kt






- Airport Elevation : 1661 ft
- IATA code : BIS


KBIS - Bismarck Municipal

CURRENT METAR :
  • 082052Z VRB04KT 10SM 31/09 A2994 RMK AO2 SLP128 T03060089 56004 $

EXPIRED METARs :
  • 082048Z 04006KT 10SM SCT002 31/09 A2995 RMK AO2 $
  • 081952Z 04007KT 10SM CLR 30/09 A2995 RMK AO2 SLP130 T03000089
  • 081852Z 00000KT 10SM CLR 28/10 A2996 RMK AO2 SLP133 T02780100

TAF KBIS
Valid from the 08 at 18:00 until the 09 at 18:00 UTC


081723Z 0818/0918 11010KT P6SM FEW120 FEW250
FM090600 12006KT P6SM SCT250
FM090900 12005KT P6SM VCSH FEW080 FEW250
FM091200 13005KT P6SM FEW080 SCT250
FM091500 29008KT P6SM FEW060 SCT250
FM091700 31013KT P6SM FEW090 FEW200
KZMP FIR / North America



MET'MAP, your aeronautical weather chart ! - Copyright ORBIFLY December 2007 - Disclaimer

ORBIFLY MET'MAP TEAM :

Programming & Development : Alexandra Zaïnal
Concept & original design : Baudouin d'Aumeries
Assistance for programming : Marc-Olivier Méhu
Technical & hardware support : Manuel Goepfert

Contact : metmap@orbifly.com




SOURCES & CREDITS :

   NOAA       Earth
Advisory